createdAt,value
2018-11-12T00:00:16.846Z,2.07
2018-11-12T00:02:49.668Z,1.87
2018-11-12T00:05:18.898Z,3.00
2018-11-12T00:07:47.479Z,3.37
2018-11-12T00:10:16.344Z,1.10
2018-11-12T00:12:44.771Z,1.03
2018-11-12T00:15:13.474Z,1.20
2018-11-12T00:17:42.282Z,2.00
2018-11-12T00:20:12.070Z,1.00
2018-11-12T00:22:41.509Z,1.00
2018-11-12T00:25:09.941Z,1.43
2018-11-12T00:27:39.234Z,1.03
2018-11-12T00:30:11.846Z,1.00
2018-11-12T00:32:40.538Z,0.93
2018-11-12T00:35:11.098Z,1.20
2018-11-12T00:37:40.379Z,3.07
2018-11-12T00:40:11.092Z,1.00
2018-11-12T00:42:40.022Z,0.80
2018-11-12T00:45:09.339Z,0.93
2018-11-12T00:47:37.786Z,1.90
2018-11-12T00:50:07.089Z,1.10
2018-11-12T00:52:35.815Z,2.23
2018-11-12T00:55:04.682Z,0.93
2018-11-12T00:57:33.388Z,1.10
2018-11-12T01:00:02.178Z,2.53
2018-11-12T01:02:31.393Z,0.97
2018-11-12T01:05:00.234Z,1.37
2018-11-12T01:07:28.999Z,2.10
2018-11-12T01:09:58.119Z,2.37
2018-11-12T01:12:26.502Z,1.20
2018-11-12T01:14:55.287Z,2.73
2018-11-12T01:17:25.216Z,1.07
2018-11-12T01:19:54.744Z,0.97
2018-11-12T01:22:23.301Z,1.23
2018-11-12T01:24:51.966Z,2.53
2018-11-12T01:27:20.844Z,1.00
2018-11-12T01:29:49.470Z,1.90
2018-11-12T01:32:18.476Z,1.10
2018-11-12T01:34:47.282Z,0.93
2018-11-12T01:37:15.882Z,0.80
2018-11-12T01:39:44.493Z,1.33
2018-11-12T01:42:13.150Z,0.87
2018-11-12T01:44:41.633Z,3.03
2018-11-12T01:47:10.129Z,1.90
2018-11-12T01:49:38.930Z,0.90
2018-11-12T01:52:08.315Z,1.87
2018-11-12T01:54:36.941Z,1.20
2018-11-12T01:57:05.653Z,1.43
2018-11-12T01:59:34.065Z,1.70
2018-11-12T02:02:02.792Z,0.90
2018-11-12T02:04:31.211Z,3.73
2018-11-12T02:07:00.521Z,1.17
2018-11-12T02:09:29.086Z,0.80
2018-11-12T02:11:57.525Z,0.80
2018-11-12T02:14:27.148Z,0.83
2018-11-12T02:16:57.126Z,0.90
2018-11-12T02:19:25.660Z,0.70
2018-11-12T02:21:54.069Z,0.97
2018-11-12T02:24:23.009Z,0.70
2018-11-12T02:26:51.475Z,1.03
2018-11-12T02:29:20.165Z,0.87
2018-11-12T02:31:48.741Z,0.90
2018-11-12T02:34:17.136Z,3.70
2018-11-12T02:36:45.567Z,0.90
2018-11-12T02:39:14.208Z,0.83
2018-11-12T02:41:42.667Z,0.90
2018-11-12T02:44:11.086Z,0.70
2018-11-12T02:46:39.758Z,2.37
2018-11-12T02:49:08.283Z,0.90
2018-11-12T02:51:37.281Z,0.80
2018-11-12T02:54:05.765Z,0.87
2018-11-12T02:56:34.954Z,1.03
2018-11-12T02:59:03.442Z,2.07
2018-11-12T03:01:32.132Z,1.10
2018-11-12T03:04:00.709Z,0.80
2018-11-12T03:06:29.304Z,5.67
2018-11-12T03:08:57.882Z,1.10
2018-11-12T03:11:26.445Z,1.07
2018-11-12T03:13:54.971Z,0.80
2018-11-12T03:16:23.359Z,1.20
2018-11-12T03:18:51.994Z,1.87
2018-11-12T03:21:20.619Z,0.80
2018-11-12T03:23:49.292Z,0.83
2018-11-12T03:26:17.927Z,1.03
2018-11-12T03:28:46.359Z,0.70
2018-11-12T03:31:14.952Z,1.00
2018-11-12T03:33:43.392Z,0.80
2018-11-12T03:36:11.892Z,0.80
2018-11-12T03:38:40.627Z,0.80
2018-11-12T03:41:09.220Z,0.70
2018-11-12T03:43:37.881Z,1.53
2018-11-12T03:46:06.546Z,1.00
2018-11-12T03:48:36.185Z,0.70
2018-11-12T03:51:04.817Z,0.80
2018-11-12T03:53:33.562Z,0.70
2018-11-12T03:56:02.184Z,0.80
2018-11-12T03:58:30.587Z,0.70
2018-11-12T04:00:59.197Z,0.70
2018-11-12T04:03:28.499Z,0.60
2018-11-12T04:05:56.912Z,0.90
2018-11-12T04:08:25.294Z,0.80
2018-11-12T04:10:53.719Z,0.70
2018-11-12T04:13:22.915Z,1.07
2018-11-12T04:15:51.503Z,0.70
2018-11-12T04:18:20.008Z,1.07
2018-11-12T04:20:48.843Z,0.83
2018-11-12T04:23:17.413Z,0.97
2018-11-12T04:25:46.141Z,2.87
2018-11-12T04:28:14.563Z,0.80
2018-11-12T04:30:43.043Z,0.93
2018-11-12T04:33:11.486Z,2.33
2018-11-12T04:35:39.920Z,2.20
2018-11-12T04:38:09.031Z,3.20
2018-11-12T04:40:38.775Z,1.37
2018-11-12T04:43:07.265Z,1.23
2018-11-12T04:45:35.741Z,1.10
2018-11-12T04:48:04.210Z,1.17
2018-11-12T04:50:32.698Z,1.90
2018-11-12T04:53:01.271Z,1.97
2018-11-12T04:55:29.783Z,1.40
2018-11-12T04:57:58.131Z,3.70
2018-11-12T05:00:27.742Z,1.80
2018-11-12T05:02:56.220Z,1.37
2018-11-12T05:05:26.088Z,1.83
2018-11-12T05:07:54.538Z,1.97
2018-11-12T05:10:24.046Z,1.60
2018-11-12T05:12:52.946Z,1.10
2018-11-12T05:15:22.333Z,1.30
2018-11-12T05:17:50.985Z,1.60
2018-11-12T05:20:20.628Z,1.40
2018-11-12T05:22:49.495Z,3.60
2018-11-12T05:25:17.922Z,2.30
2018-11-12T05:27:46.430Z,1.83
2018-11-12T05:30:19.749Z,2.30
2018-11-12T05:32:48.257Z,1.50
2018-11-12T05:35:18.082Z,2.97
2018-11-12T05:37:46.531Z,3.97
2018-11-12T05:40:23.740Z,1.60
2018-11-12T05:42:52.193Z,2.53
2018-11-12T05:45:21.872Z,4.00
2018-11-12T05:47:50.338Z,3.30
2018-11-12T05:50:20.953Z,2.20
2018-11-12T05:52:50.620Z,2.33
2018-11-12T05:55:20.439Z,3.40
2018-11-12T05:57:49.183Z,5.20
2018-11-12T06:00:19.617Z,2.17
2018-11-12T06:02:48.192Z,4.10
2018-11-12T06:05:17.339Z,4.47
2018-11-12T06:07:45.940Z,4.37
2018-11-12T06:10:17.427Z,3.27
2018-11-12T06:12:47.457Z,5.20
2018-11-12T06:15:16.336Z,4.00
2018-11-12T06:17:45.645Z,3.37
2018-11-12T06:20:17.036Z,5.73
2018-11-12T06:22:45.850Z,5.83
2018-11-12T06:25:16.600Z,3.87
2018-11-12T06:27:45.249Z,5.97
2018-11-12T06:30:15.648Z,2.77
2018-11-12T06:32:51.031Z,4.10
2018-11-12T06:35:22.203Z,4.70
2018-11-12T06:37:51.903Z,5.83
2018-11-12T06:40:21.666Z,5.37
2018-11-12T06:42:50.383Z,8.20
2018-11-12T06:45:50.553Z,4.00
2018-11-12T06:48:21.263Z,5.53
2018-11-12T06:50:49.715Z,7.70
2018-11-12T06:53:18.704Z,6.37
2018-11-12T06:55:47.518Z,5.77
2018-11-12T06:58:16.190Z,6.07
2018-11-12T07:00:44.802Z,6.17
2018-11-12T07:03:13.273Z,5.90
2018-11-12T07:05:41.722Z,5.97
2018-11-12T07:08:10.230Z,5.43
2018-11-12T07:10:40.870Z,5.50
2018-11-12T07:13:09.460Z,9.27
2018-11-12T07:15:38.493Z,9.60
2018-11-12T07:18:07.108Z,10.43
2018-11-12T07:20:35.563Z,6.93
2018-11-12T07:23:04.101Z,7.13
2018-11-12T07:25:32.502Z,11.30
2018-11-12T07:28:01.146Z,6.33
2018-11-12T07:30:29.903Z,6.30
2018-11-12T07:32:59.198Z,8.73
2018-11-12T07:35:27.905Z,5.57
2018-11-12T07:37:57.189Z,10.63
2018-11-12T07:40:25.731Z,8.27
2018-11-12T07:42:54.196Z,9.13
2018-11-12T07:45:24.034Z,5.70
2018-11-12T07:47:53.293Z,6.03
2018-11-12T07:50:23.100Z,7.90
2018-11-12T07:52:51.799Z,7.80
2018-11-12T07:55:24.900Z,6.90
2018-11-12T07:57:54.622Z,7.60
2018-11-12T08:00:24.568Z,8.70
2018-11-12T08:03:10.748Z,8.17
2018-11-12T08:05:40.133Z,9.23
2018-11-12T08:08:09.075Z,9.23
2018-11-12T08:10:37.578Z,11.00
2018-11-12T08:13:06.358Z,10.20
2018-11-12T08:15:34.837Z,8.30
2018-11-12T08:18:03.497Z,5.77
2018-11-12T08:20:32.151Z,7.53
2018-11-12T08:23:00.603Z,10.37
2018-11-12T08:25:29.168Z,9.80
2018-11-12T08:27:57.717Z,13.33
2018-11-12T08:30:27.582Z,13.37
2018-11-12T08:32:57.272Z,11.93
2018-11-12T08:35:25.991Z,9.63
2018-11-12T08:37:54.877Z,10.30
2018-11-12T08:40:25.357Z,8.03
2018-11-12T08:42:53.761Z,10.23
2018-11-12T08:45:22.210Z,17.40
2018-11-12T08:47:52.234Z,10.73
2018-11-12T08:50:21.923Z,11.00
2018-11-12T08:52:51.403Z,12.17
2018-11-12T08:55:21.120Z,8.30
2018-11-12T08:57:52.675Z,8.97
2018-11-12T09:03:21.050Z,10.57
2018-11-12T09:05:49.549Z,12.47
2018-11-12T09:08:17.908Z,9.97
2018-11-12T09:10:46.368Z,9.07
2018-11-12T09:13:15.848Z,11.67
2018-11-12T09:15:44.625Z,16.17
2018-11-12T09:18:13.338Z,9.20
2018-11-12T09:20:41.775Z,11.97
2018-11-12T09:23:10.307Z,10.47
2018-11-12T09:25:38.765Z,7.90
2018-11-12T09:28:07.409Z,8.23
2018-11-12T09:30:35.769Z,11.00
2018-11-12T09:33:04.590Z,10.10
2018-11-12T09:35:33.237Z,10.10
2018-11-12T09:38:03.121Z,13.30
2018-11-12T09:40:35.686Z,16.10
2018-11-12T09:43:04.353Z,8.07
2018-11-12T09:45:33.041Z,8.30
2018-11-12T09:48:02.050Z,9.67
2018-11-12T09:50:30.768Z,11.53
2018-11-12T09:53:00.228Z,8.27
2018-11-12T09:55:29.842Z,11.77
2018-11-12T09:58:00.053Z,8.27
2018-11-12T10:00:28.900Z,8.73
2018-11-12T10:02:58.076Z,11.27
2018-11-12T10:05:27.346Z,8.57
2018-11-12T10:07:58.477Z,8.57
2018-11-12T10:10:56.159Z,9.20
2018-11-12T10:13:29.777Z,8.23
2018-11-12T10:15:59.993Z,9.37
2018-11-12T10:18:25.397Z,9.00
2018-11-12T10:20:53.847Z,10.67
2018-11-12T10:23:22.865Z,8.77
2018-11-12T10:25:51.588Z,7.10
2018-11-12T10:28:21.463Z,10.40
2018-11-12T10:30:50.247Z,6.50
2018-11-12T10:33:18.743Z,8.60
2018-11-12T10:35:48.060Z,7.13
2018-11-12T10:38:16.489Z,8.97
2018-11-12T10:40:45.183Z,8.87
2018-11-12T10:43:13.526Z,6.97
2018-11-12T10:45:42.048Z,8.27
2018-11-12T10:48:10.580Z,7.77
2018-11-12T10:50:39.062Z,9.50
2018-11-12T10:53:07.526Z,9.90
2018-11-12T10:55:36.166Z,7.63
2018-11-12T10:58:04.585Z,9.53
2018-11-12T11:00:38.945Z,10.40
2018-11-12T11:03:13.883Z,7.90
2018-11-12T11:05:43.744Z,8.00
2018-11-12T11:08:12.367Z,5.13
2018-11-12T11:10:41.091Z,7.80
2018-11-12T11:13:09.855Z,4.47
2018-11-12T11:15:38.957Z,5.67
2018-11-12T11:18:10.652Z,4.67
2018-11-12T11:20:39.393Z,3.67
2018-11-12T11:23:07.865Z,4.33
2018-11-12T11:25:36.377Z,5.00
2018-11-12T11:28:04.791Z,4.70
2018-11-12T11:30:33.263Z,4.43
2018-11-12T11:33:02.312Z,4.23
2018-11-12T11:35:30.715Z,5.40
2018-11-12T11:37:59.170Z,3.70
2018-11-12T11:40:28.125Z,1.93
2018-11-12T11:42:56.611Z,2.77
2018-11-12T11:45:25.153Z,3.57
2018-11-12T11:47:54.030Z,3.53
2018-11-12T11:50:23.990Z,3.70
2018-11-12T11:52:52.369Z,3.50
2018-11-12T11:55:22.178Z,6.90
2018-11-12T11:57:50.874Z,3.60
2018-11-12T12:00:24.654Z,2.40
2018-11-12T12:02:54.095Z,4.30
2018-11-12T12:05:23.362Z,2.97
2018-11-12T12:07:52.662Z,2.83
2018-11-12T12:10:21.145Z,2.50
2018-11-12T12:12:50.475Z,2.43
2018-11-12T12:15:20.023Z,5.80
2018-11-12T12:17:48.453Z,2.67
2018-11-12T12:20:20.270Z,2.63
2018-11-12T12:22:48.734Z,2.13
2018-11-12T12:25:18.068Z,1.93
2018-11-12T12:27:47.346Z,3.20
2018-11-12T12:30:21.952Z,2.10
2018-11-12T12:32:51.422Z,2.97
2018-11-12T12:35:19.943Z,3.00
2018-11-12T12:37:48.488Z,5.20
2018-11-12T12:40:18.405Z,4.83
2018-11-12T12:42:47.117Z,2.07
2018-11-12T12:45:17.009Z,2.17
2018-11-12T12:47:49.240Z,2.73
2018-11-12T12:50:22.888Z,1.60
2018-11-12T12:52:51.346Z,1.50
2018-11-12T12:55:20.137Z,1.67
2018-11-12T12:57:48.813Z,2.77
2018-11-12T13:00:25.587Z,1.63
2018-11-12T13:02:54.064Z,2.73
2018-11-12T13:05:22.738Z,2.40
2018-11-12T13:07:51.187Z,3.37
2018-11-12T13:10:21.087Z,1.90
2018-11-12T13:12:49.727Z,3.37
2018-11-12T13:15:19.235Z,1.30
2018-11-12T13:17:49.000Z,4.47
2018-11-12T13:20:19.211Z,2.43
2018-11-12T13:22:48.268Z,1.67
2018-11-12T13:25:18.623Z,1.47
2018-11-12T13:27:48.118Z,2.97
2018-11-12T13:30:19.507Z,1.67
2018-11-12T13:32:48.828Z,3.03
2018-11-12T13:35:21.214Z,2.13
2018-11-12T13:37:49.932Z,2.27
2018-11-12T13:40:26.917Z,1.43
2018-11-12T13:42:57.138Z,1.40
2018-11-12T13:45:26.193Z,4.17
2018-11-12T13:47:55.266Z,2.17
2018-11-12T13:50:25.353Z,2.23
2018-11-12T13:52:54.544Z,2.37
2018-11-12T13:55:23.974Z,4.60
2018-11-12T13:57:52.737Z,2.10
2018-11-12T14:00:22.973Z,3.77
2018-11-12T14:02:52.117Z,4.47
2018-11-12T14:05:21.688Z,4.73
2018-11-12T14:07:50.249Z,1.43
2018-11-12T14:10:20.305Z,1.77
2018-11-12T14:12:49.604Z,1.73
2018-11-12T14:15:20.684Z,2.23
2018-11-12T14:17:49.743Z,1.80
2018-11-12T14:20:18.714Z,1.60
2018-11-12T14:22:47.304Z,1.50
2018-11-12T14:25:16.994Z,1.93
2018-11-12T14:27:46.999Z,1.80
2018-11-12T14:30:16.909Z,3.07
2018-11-12T14:32:45.563Z,3.53
2018-11-12T14:35:14.950Z,2.43
2018-11-12T14:37:44.670Z,4.73
2018-11-12T14:40:14.172Z,2.63
2018-11-12T14:42:43.803Z,7.03
2018-11-12T14:45:15.881Z,2.90
2018-11-12T14:47:44.801Z,2.17
2018-11-12T14:50:13.380Z,6.73
2018-11-12T14:52:41.944Z,2.07
2018-11-12T14:55:11.954Z,2.87
2018-11-12T14:57:41.461Z,3.10
2018-11-12T15:00:22.743Z,2.80
2018-11-12T15:02:51.479Z,2.03
2018-11-12T15:05:21.371Z,1.63
2018-11-12T15:07:49.923Z,2.23
2018-11-12T15:10:18.533Z,1.93
2018-11-12T15:12:47.754Z,1.87
2018-11-12T15:15:16.220Z,4.57
2018-11-12T15:17:44.966Z,2.93
2018-11-12T15:20:15.401Z,1.67
2018-11-12T15:22:44.413Z,1.97
2018-11-12T15:25:15.475Z,1.27
2018-11-12T15:27:44.413Z,4.17
2018-11-12T15:30:14.800Z,2.87
2018-11-12T15:32:43.933Z,4.77
2018-11-12T15:35:13.137Z,2.17
2018-11-12T15:37:42.759Z,7.13
2018-11-12T15:40:12.689Z,1.53
2018-11-12T15:42:41.631Z,3.27
2018-11-12T15:45:13.979Z,3.23
2018-11-12T15:47:43.071Z,2.03
2018-11-12T15:50:15.515Z,1.87
2018-11-12T15:52:44.980Z,3.33
2018-11-12T15:55:13.471Z,4.83
2018-11-12T15:57:41.940Z,2.43
2018-11-12T16:00:14.371Z,1.50
2018-11-12T16:02:43.019Z,2.53
2018-11-12T16:05:12.380Z,2.03
2018-11-12T16:07:41.958Z,2.57
2018-11-12T16:10:16.366Z,2.57
2018-11-12T16:12:45.229Z,4.20
2018-11-12T16:15:15.684Z,1.63
2018-11-12T16:17:44.394Z,2.87
2018-11-12T16:20:17.479Z,3.57
2018-11-12T16:22:47.346Z,2.70
2018-11-12T16:25:19.295Z,3.43
2018-11-12T16:27:47.886Z,1.67
2018-11-12T16:30:19.405Z,4.50
2018-11-12T16:32:48.410Z,4.93
2018-11-12T16:35:20.320Z,2.53
2018-11-12T16:37:50.753Z,3.10
2018-11-12T16:40:19.754Z,2.00
2018-11-12T16:42:51.005Z,2.90
2018-11-12T16:45:19.466Z,4.17
2018-11-12T16:47:48.536Z,2.80
2018-11-12T16:50:18.760Z,4.13
2018-11-12T16:52:47.815Z,4.47
2018-11-12T16:55:18.847Z,2.17
2018-11-12T16:57:47.492Z,4.83
2018-11-12T17:00:17.346Z,1.50
2018-11-12T17:02:46.107Z,2.43
2018-11-12T17:05:17.151Z,2.07
2018-11-12T17:07:47.086Z,3.53
2018-11-12T17:10:17.114Z,2.50
2018-11-12T17:12:46.810Z,1.97
2018-11-12T17:15:15.971Z,2.90
2018-11-12T17:17:44.822Z,2.93
2018-11-12T17:20:14.757Z,1.97
2018-11-12T17:22:43.953Z,1.90
2018-11-12T17:25:14.267Z,2.70
2018-11-12T17:27:46.297Z,2.07
2018-11-12T17:30:17.592Z,4.70
2018-11-12T17:32:46.778Z,1.40
2018-11-12T17:35:17.339Z,1.47
2018-11-12T17:37:46.917Z,2.83
2018-11-12T17:40:17.538Z,1.50
2018-11-12T17:42:48.567Z,1.50
2018-11-12T17:45:18.541Z,2.17
2018-11-12T17:47:48.396Z,1.60
2018-11-12T17:50:17.378Z,4.77
2018-11-12T17:52:46.126Z,3.07
2018-11-12T17:55:14.925Z,2.13
2018-11-12T17:57:43.818Z,2.00
2018-11-12T18:00:18.550Z,3.63
2018-11-12T18:02:47.664Z,2.53
2018-11-12T18:05:16.149Z,2.57
2018-11-12T18:07:45.749Z,2.13
2018-11-12T18:10:15.455Z,1.93
2018-11-12T18:12:46.288Z,1.50
2018-11-12T18:15:19.713Z,1.90
2018-11-12T18:17:49.899Z,3.23
2018-11-12T18:20:23.145Z,2.50
2018-11-12T18:22:52.744Z,2.57
2018-11-12T18:25:22.097Z,2.13
2018-11-12T18:27:51.321Z,2.07
2018-11-12T18:30:23.225Z,1.97
2018-11-12T18:32:53.238Z,2.97
2018-11-12T18:35:22.319Z,4.73
2018-11-12T18:37:51.153Z,2.43
2018-11-12T18:40:22.382Z,3.47
2018-11-12T18:42:51.462Z,3.57
2018-11-12T18:45:22.814Z,4.20
2018-11-12T18:47:52.444Z,2.73
2018-11-12T18:50:26.095Z,3.90
2018-11-12T18:52:55.301Z,2.47
2018-11-12T18:55:24.046Z,2.17
2018-11-12T18:57:53.666Z,1.77
2018-11-12T19:00:25.087Z,2.10
2018-11-12T19:02:54.756Z,4.60
2018-11-12T19:05:25.506Z,3.10
2018-11-12T19:07:55.998Z,2.60
2018-11-12T19:10:27.040Z,2.37
2018-11-12T19:12:55.655Z,3.50
2018-11-12T19:15:35.864Z,4.60
2018-11-12T19:18:14.821Z,3.83
2018-11-12T19:20:45.015Z,3.97
2018-11-12T19:23:15.132Z,2.23
2018-11-12T19:25:44.068Z,1.97
2018-11-12T19:28:12.950Z,2.13
2018-11-12T19:30:42.087Z,3.00
2018-11-12T19:33:11.032Z,2.03
2018-11-12T19:35:39.464Z,1.80
2018-11-12T19:38:07.974Z,2.13
2018-11-12T19:40:37.170Z,4.53
2018-11-12T19:43:05.634Z,5.27
2018-11-12T19:45:34.629Z,3.40
2018-11-12T19:48:03.564Z,4.73
2018-11-12T19:50:31.990Z,3.87
2018-11-12T19:53:01.245Z,4.53
2018-11-12T19:55:29.764Z,6.03
2018-11-12T19:57:59.764Z,5.93
2018-11-12T20:00:29.782Z,7.87
2018-11-12T20:02:59.371Z,7.87
2018-11-12T20:05:27.903Z,6.07
2018-11-12T20:07:56.458Z,7.33
2018-11-12T20:10:25.409Z,10.37
2018-11-12T20:12:53.801Z,11.30
2018-11-12T20:15:23.327Z,12.20
2018-11-12T20:17:52.471Z,16.07
2018-11-12T20:20:23.496Z,11.57
2018-11-12T20:22:52.336Z,12.17
2018-11-12T20:25:21.257Z,11.63
2018-11-12T20:27:51.407Z,10.83
2018-11-12T20:30:37.327Z,13.47
2018-11-12T20:33:06.588Z,14.60
2018-11-12T20:35:35.670Z,12.90
2018-11-12T20:38:04.323Z,11.83
2018-11-12T20:40:33.345Z,12.03
2018-11-12T20:43:01.858Z,12.33
2018-11-12T20:45:31.378Z,13.67
2018-11-12T20:47:59.877Z,12.80
2018-11-12T20:50:28.407Z,13.23
2018-11-12T20:52:57.204Z,14.17
2018-11-12T20:55:25.709Z,16.30
2018-11-12T20:57:55.222Z,14.50
2018-11-12T21:00:25.927Z,14.83
2018-11-12T21:02:55.349Z,17.60
2018-11-12T21:05:25.792Z,15.27
2018-11-12T21:07:54.844Z,19.27
2018-11-12T21:10:23.960Z,18.10
2018-11-12T21:12:53.606Z,22.57
2018-11-12T21:15:33.582Z,24.00
2018-11-12T21:18:02.178Z,21.87
2018-11-12T21:20:30.714Z,22.37
2018-11-12T21:22:59.139Z,15.73
2018-11-12T21:25:28.219Z,13.13
2018-11-12T21:27:56.715Z,13.57
2018-11-12T21:30:26.510Z,14.63
2018-11-12T21:32:55.062Z,11.60
2018-11-12T21:35:24.726Z,12.93
2018-11-12T21:37:54.340Z,10.93
2018-11-12T21:40:24.146Z,11.70
2018-11-12T21:42:52.742Z,10.90
2018-11-12T21:45:22.986Z,12.57
2018-11-12T21:47:51.621Z,13.90
2018-11-12T21:50:21.312Z,13.43
2018-11-12T21:52:49.815Z,14.33
2018-11-12T21:55:18.355Z,12.73
2018-11-12T21:57:47.122Z,13.80
2018-11-12T22:00:18.107Z,13.30
2018-11-12T22:02:48.027Z,15.50
2018-11-12T22:05:16.570Z,15.40
2018-11-12T22:07:45.000Z,14.63
2018-11-12T22:10:14.448Z,19.00
2018-11-12T22:12:44.378Z,18.00
2018-11-12T22:15:13.117Z,17.30
2018-11-12T22:17:41.611Z,13.33
2018-11-12T22:20:11.623Z,15.63
2018-11-12T22:22:41.436Z,17.43
2018-11-12T22:25:14.124Z,19.53
2018-11-12T22:27:43.478Z,18.10
2018-11-12T22:30:14.650Z,18.77
2018-11-12T22:32:44.117Z,18.43
2018-11-12T22:35:12.647Z,19.60
2018-11-12T22:37:41.204Z,18.63
2018-11-12T22:40:11.047Z,18.83
2018-11-12T22:42:40.071Z,21.27
2018-11-12T22:45:10.295Z,22.87
2018-11-12T22:47:38.881Z,21.80
2018-11-12T22:50:08.291Z,24.83
2018-11-12T22:52:37.426Z,20.33
2018-11-12T22:55:06.557Z,23.27
2018-11-12T22:57:35.120Z,22.90
2018-11-12T23:00:03.688Z,23.57
2018-11-12T23:02:32.190Z,20.90
2018-11-12T23:05:00.566Z,26.87
2018-11-12T23:07:29.549Z,25.50
2018-11-12T23:09:57.928Z,26.60
2018-11-12T23:12:27.067Z,27.30
2018-11-12T23:14:55.592Z,24.27
2018-11-12T23:17:24.103Z,26.10
2018-11-12T23:19:53.475Z,26.57
2018-11-12T23:22:21.851Z,31.17
2018-11-12T23:24:50.278Z,25.60
2018-11-12T23:27:18.940Z,26.60
2018-11-12T23:29:47.388Z,26.67
2018-11-12T23:32:15.815Z,27.83
2018-11-12T23:34:44.266Z,30.47
2018-11-12T23:37:12.811Z,26.83
2018-11-12T23:39:41.157Z,30.27
2018-11-12T23:42:09.532Z,31.27
2018-11-12T23:44:37.893Z,29.17
2018-11-12T23:47:06.568Z,29.97
2018-11-12T23:49:34.942Z,28.50
2018-11-12T23:52:04.174Z,32.10
2018-11-12T23:54:32.756Z,29.97
2018-11-12T23:57:02.119Z,32.17
2018-11-12T23:59:30.696Z,32.13
